sensor_id;sensor_type;location;lat;lon;timestamp;P1;durP1;ratioP1;P2;durP2;ratioP2
31730;SDS011;18310;55.586;12.286;2023-02-01T00:02:40;9.77;;;2.05;;
31730;SDS011;18310;55.586;12.286;2023-02-01T00:05:44;17.73;;;2.88;;
31730;SDS011;18310;55.586;12.286;2023-02-01T00:08:56;18.45;;;2.58;;
31730;SDS011;18310;55.586;12.286;2023-02-01T00:12:01;13.88;;;2.67;;
31730;SDS011;18310;55.586;12.286;2023-02-01T00:15:05;17.63;;;2.92;;
31730;SDS011;18310;55.586;12.286;2023-02-01T00:18:09;16.75;;;2.63;;
31730;SDS011;18310;55.586;12.286;2023-02-01T00:21:13;15.50;;;2.67;;
31730;SDS011;18310;55.586;12.286;2023-02-01T00:24:18;14.80;;;3.03;;
31730;SDS011;18310;55.586;12.286;2023-02-01T00:27:23;10.88;;;2.67;;
31730;SDS011;18310;55.586;12.286;2023-02-01T00:30:26;17.33;;;2.97;;
31730;SDS011;18310;55.586;12.286;2023-02-01T00:33:30;14.45;;;2.20;;
31730;SDS011;18310;55.586;12.286;2023-02-01T00:36:34;20.75;;;3.42;;
31730;SDS011;18310;55.586;12.286;2023-02-01T00:39:38;11.65;;;2.60;;
31730;SDS011;18310;55.586;12.286;2023-02-01T00:42:43;12.90;;;2.50;;
31730;SDS011;18310;55.586;12.286;2023-02-01T00:45:46;14.70;;;2.55;;
31730;SDS011;18310;55.586;12.286;2023-02-01T00:51:53;16.13;;;3.15;;
31730;SDS011;18310;55.586;12.286;2023-02-01T00:54:57;16.92;;;2.80;;
31730;SDS011;18310;55.586;12.286;2023-02-01T00:58:02;10.57;;;2.53;;
31730;SDS011;18310;55.586;12.286;2023-02-01T01:01:08;17.50;;;3.22;;
31730;SDS011;18310;55.586;12.286;2023-02-01T01:04:13;17.42;;;3.53;;
31730;SDS011;18310;55.586;12.286;2023-02-01T01:07:17;11.30;;;2.47;;
31730;SDS011;18310;55.586;12.286;2023-02-01T01:10:21;13.77;;;2.75;;
31730;SDS011;18310;55.586;12.286;2023-02-01T01:13:26;15.50;;;2.88;;
31730;SDS011;18310;55.586;12.286;2023-02-01T01:16:30;19.85;;;3.05;;
31730;SDS011;18310;55.586;12.286;2023-02-01T01:19:34;12.95;;;2.78;;
31730;SDS011;18310;55.586;12.286;2023-02-01T01:22:37;14.40;;;3.20;;
31730;SDS011;18310;55.586;12.286;2023-02-01T01:25:41;13.73;;;2.63;;
31730;SDS011;18310;55.586;12.286;2023-02-01T01:28:46;16.40;;;2.47;;
31730;SDS011;18310;55.586;12.286;2023-02-01T01:31:50;16.35;;;3.10;;
31730;SDS011;18310;55.586;12.286;2023-02-01T01:34:54;16.42;;;2.95;;
31730;SDS011;18310;55.586;12.286;2023-02-01T01:37:58;17.75;;;3.50;;
31730;SDS011;18310;55.586;12.286;2023-02-01T01:41:03;15.82;;;3.60;;
31730;SDS011;18310;55.586;12.286;2023-02-01T01:51:09;23.50;;;3.42;;
31730;SDS011;18310;55.586;12.286;2023-02-01T01:54:16;18.65;;;3.90;;
31730;SDS011;18310;55.586;12.286;2023-02-01T01:57:26;20.75;;;3.55;;
31730;SDS011;18310;55.586;12.286;2023-02-01T02:00:37;19.75;;;3.60;;
31730;SDS011;18310;55.586;12.286;2023-02-01T02:03:42;27.23;;;3.80;;
31730;SDS011;18310;55.586;12.286;2023-02-01T02:06:50;16.42;;;3.90;;
31730;SDS011;18310;55.586;12.286;2023-02-01T02:09:58;24.23;;;3.90;;
31730;SDS011;18310;55.586;12.286;2023-02-01T02:13:02;21.13;;;3.70;;
31730;SDS011;18310;55.586;12.286;2023-02-01T02:16:17;19.13;;;3.38;;
31730;SDS011;18310;55.586;12.286;2023-02-01T02:23:49;14.85;;;2.78;;
31730;SDS011;18310;55.586;12.286;2023-02-01T02:27:34;19.08;;;3.47;;
31730;SDS011;18310;55.586;12.286;2023-02-01T02:31:03;16.00;;;3.55;;
31730;SDS011;18310;55.586;12.286;2023-02-01T02:34:37;16.70;;;3.47;;
31730;SDS011;18310;55.586;12.286;2023-02-01T02:37:46;23.05;;;3.58;;
31730;SDS011;18310;55.586;12.286;2023-02-01T02:41:02;21.52;;;4.45;;
31730;SDS011;18310;55.586;12.286;2023-02-01T02:44:35;24.17;;;4.13;;
31730;SDS011;18310;55.586;12.286;2023-02-01T02:48:06;28.42;;;4.32;;
31730;SDS011;18310;55.586;12.286;2023-02-01T02:51:22;20.77;;;3.28;;
31730;SDS011;18310;55.586;12.286;2023-02-01T02:54:50;22.60;;;3.72;;
31730;SDS011;18310;55.586;12.286;2023-02-01T02:57:55;20.45;;;4.03;;
31730;SDS011;18310;55.586;12.286;2023-02-01T03:01:19;19.60;;;4.05;;
31730;SDS011;18310;55.586;12.286;2023-02-01T03:04:41;19.30;;;3.90;;
31730;SDS011;18310;55.586;12.286;2023-02-01T03:07:52;29.92;;;4.55;;
31730;SDS011;18310;55.586;12.286;2023-02-01T03:11:04;28.35;;;4.78;;
31730;SDS011;18310;55.586;12.286;2023-02-01T03:14:10;22.30;;;4.00;;
31730;SDS011;18310;55.586;12.286;2023-02-01T03:17:17;25.95;;;4.38;;
31730;SDS011;18310;55.586;12.286;2023-02-01T03:20:28;23.02;;;4.00;;
31730;SDS011;18310;55.586;12.286;2023-02-01T03:23:35;24.05;;;4.25;;
31730;SDS011;18310;55.586;12.286;2023-02-01T03:26:41;20.38;;;3.53;;
31730;SDS011;18310;55.586;12.286;2023-02-01T03:29:54;25.38;;;4.30;;
31730;SDS011;18310;55.586;12.286;2023-02-01T03:33:06;28.73;;;4.88;;
31730;SDS011;18310;55.586;12.286;2023-02-01T03:36:24;23.05;;;4.40;;
31730;SDS011;18310;55.586;12.286;2023-02-01T03:39:38;26.70;;;5.45;;
31730;SDS011;18310;55.586;12.286;2023-02-01T03:42:50;31.63;;;4.82;;
31730;SDS011;18310;55.586;12.286;2023-02-01T03:46:00;32.95;;;4.57;;
31730;SDS011;18310;55.586;12.286;2023-02-01T03:49:17;28.27;;;4.38;;
31730;SDS011;18310;55.586;12.286;2023-02-01T03:52:28;21.65;;;4.28;;
31730;SDS011;18310;55.586;12.286;2023-02-01T03:55:36;18.35;;;3.05;;
31730;SDS011;18310;55.586;12.286;2023-02-01T03:58:42;15.40;;;4.03;;
31730;SDS011;18310;55.586;12.286;2023-02-01T04:01:59;22.63;;;3.85;;
31730;SDS011;18310;55.586;12.286;2023-02-01T04:05:03;19.33;;;4.22;;
31730;SDS011;18310;55.586;12.286;2023-02-01T04:11:12;25.98;;;3.60;;
31730;SDS011;18310;55.586;12.286;2023-02-01T04:14:15;20.98;;;4.28;;
31730;SDS011;18310;55.586;12.286;2023-02-01T04:17:18;20.83;;;4.27;;
31730;SDS011;18310;55.586;12.286;2023-02-01T04:20:22;16.77;;;3.30;;
31730;SDS011;18310;55.586;12.286;2023-02-01T04:23:25;19.92;;;3.83;;
31730;SDS011;18310;55.586;12.286;2023-02-01T04:26:30;19.63;;;2.92;;
31730;SDS011;18310;55.586;12.286;2023-02-01T04:29:34;20.33;;;4.13;;
31730;SDS011;18310;55.586;12.286;2023-02-01T04:32:38;18.58;;;3.25;;
31730;SDS011;18310;55.586;12.286;2023-02-01T04:35:42;17.83;;;3.15;;
31730;SDS011;18310;55.586;12.286;2023-02-01T04:41:50;16.85;;;3.38;;
31730;SDS011;18310;55.586;12.286;2023-02-01T04:44:53;16.10;;;2.55;;
31730;SDS011;18310;55.586;12.286;2023-02-01T04:47:56;17.30;;;3.38;;
31730;SDS011;18310;55.586;12.286;2023-02-01T04:50:59;17.00;;;2.70;;
31730;SDS011;18310;55.586;12.286;2023-02-01T04:57:09;11.02;;;2.53;;
31730;SDS011;18310;55.586;12.286;2023-02-01T05:00:14;12.65;;;2.17;;
31730;SDS011;18310;55.586;12.286;2023-02-01T05:03:19;8.90;;;2.22;;
31730;SDS011;18310;55.586;12.286;2023-02-01T05:06:22;11.25;;;1.58;;
31730;SDS011;18310;55.586;12.286;2023-02-01T05:09:26;7.70;;;1.75;;
31730;SDS011;18310;55.586;12.286;2023-02-01T05:12:30;5.07;;;1.10;;
31730;SDS011;18310;55.586;12.286;2023-02-01T05:15:51;7.72;;;1.70;;
31730;SDS011;18310;55.586;12.286;2023-02-01T05:18:55;9.40;;;1.20;;
31730;SDS011;18310;55.586;12.286;2023-02-01T05:21:58;4.40;;;1.20;;
31730;SDS011;18310;55.586;12.286;2023-02-01T05:25:02;9.70;;;1.77;;
31730;SDS011;18310;55.586;12.286;2023-02-01T05:28:10;8.85;;;1.52;;
31730;SDS011;18310;55.586;12.286;2023-02-01T05:31:15;7.55;;;1.50;;
31730;SDS011;18310;55.586;12.286;2023-02-01T05:37:23;6.00;;;1.38;;
31730;SDS011;18310;55.586;12.286;2023-02-01T05:40:28;7.63;;;1.17;;
31730;SDS011;18310;55.586;12.286;2023-02-01T05:43:33;9.07;;;1.40;;
31730;SDS011;18310;55.586;12.286;2023-02-01T05:46:37;5.68;;;1.20;;
31730;SDS011;18310;55.586;12.286;2023-02-01T05:49:40;7.50;;;1.38;;
31730;SDS011;18310;55.586;12.286;2023-02-01T05:52:44;4.38;;;1.38;;
31730;SDS011;18310;55.586;12.286;2023-02-01T05:55:48;9.50;;;1.92;;
31730;SDS011;18310;55.586;12.286;2023-02-01T05:58:53;8.88;;;1.50;;
31730;SDS011;18310;55.586;12.286;2023-02-01T06:01:56;12.13;;;1.80;;
31730;SDS011;18310;55.586;12.286;2023-02-01T06:05:00;11.25;;;1.75;;
31730;SDS011;18310;55.586;12.286;2023-02-01T06:08:03;9.25;;;1.58;;
31730;SDS011;18310;55.586;12.286;2023-02-01T06:11:08;6.47;;;1.30;;
31730;SDS011;18310;55.586;12.286;2023-02-01T06:14:33;6.32;;;1.30;;
31730;SDS011;18310;55.586;12.286;2023-02-01T06:17:39;5.57;;;1.40;;
31730;SDS011;18310;55.586;12.286;2023-02-01T06:20:43;8.85;;;1.83;;
31730;SDS011;18310;55.586;12.286;2023-02-01T06:23:46;6.90;;;1.90;;
31730;SDS011;18310;55.586;12.286;2023-02-01T06:26:50;10.93;;;1.48;;
31730;SDS011;18310;55.586;12.286;2023-02-01T06:29:54;7.00;;;1.80;;
31730;SDS011;18310;55.586;12.286;2023-02-01T06:32:58;14.70;;;1.50;;
31730;SDS011;18310;55.586;12.286;2023-02-01T06:36:02;8.55;;;1.92;;
31730;SDS011;18310;55.586;12.286;2023-02-01T06:39:08;10.80;;;2.05;;
31730;SDS011;18310;55.586;12.286;2023-02-01T06:42:11;8.95;;;1.50;;
31730;SDS011;18310;55.586;12.286;2023-02-01T06:45:16;14.35;;;1.85;;
31730;SDS011;18310;55.586;12.286;2023-02-01T06:48:19;11.32;;;2.17;;
31730;SDS011;18310;55.586;12.286;2023-02-01T06:51:23;10.20;;;1.40;;
31730;SDS011;18310;55.586;12.286;2023-02-01T06:54:29;8.75;;;1.77;;
31730;SDS011;18310;55.586;12.286;2023-02-01T06:57:34;11.80;;;1.85;;
31730;SDS011;18310;55.586;12.286;2023-02-01T07:00:39;12.02;;;1.50;;
31730;SDS011;18310;55.586;12.286;2023-02-01T07:03:46;7.80;;;1.50;;
31730;SDS011;18310;55.586;12.286;2023-02-01T07:06:51;9.60;;;1.60;;
31730;SDS011;18310;55.586;12.286;2023-02-01T07:09:54;13.37;;;1.90;;
31730;SDS011;18310;55.586;12.286;2023-02-01T07:12:57;7.82;;;2.25;;
31730;SDS011;18310;55.586;12.286;2023-02-01T07:16:03;7.78;;;1.60;;
31730;SDS011;18310;55.586;12.286;2023-02-01T07:19:08;6.80;;;1.58;;
31730;SDS011;18310;55.586;12.286;2023-02-01T07:22:12;8.07;;;1.50;;
31730;SDS011;18310;55.586;12.286;2023-02-01T07:25:18;10.85;;;1.52;;
31730;SDS011;18310;55.586;12.286;2023-02-01T07:28:21;9.90;;;1.40;;
31730;SDS011;18310;55.586;12.286;2023-02-01T07:31:26;11.18;;;1.10;;
31730;SDS011;18310;55.586;12.286;2023-02-01T07:34:30;11.20;;;1.52;;
31730;SDS011;18310;55.586;12.286;2023-02-01T07:37:35;8.43;;;1.58;;
31730;SDS011;18310;55.586;12.286;2023-02-01T07:40:38;7.82;;;1.40;;
31730;SDS011;18310;55.586;12.286;2023-02-01T07:43:43;7.70;;;1.75;;
31730;SDS011;18310;55.586;12.286;2023-02-01T07:46:49;10.98;;;1.30;;
31730;SDS011;18310;55.586;12.286;2023-02-01T07:49:53;9.68;;;1.05;;
31730;SDS011;18310;55.586;12.286;2023-02-01T07:52:58;6.28;;;1.05;;
31730;SDS011;18310;55.586;12.286;2023-02-01T07:56:02;5.57;;;0.95;;
31730;SDS011;18310;55.586;12.286;2023-02-01T07:59:11;9.85;;;1.58;;
31730;SDS011;18310;55.586;12.286;2023-02-01T08:02:17;5.50;;;1.17;;
31730;SDS011;18310;55.586;12.286;2023-02-01T08:05:21;6.97;;;1.33;;
31730;SDS011;18310;55.586;12.286;2023-02-01T08:08:25;3.40;;;0.80;;
31730;SDS011;18310;55.586;12.286;2023-02-01T08:11:28;6.97;;;1.70;;
31730;SDS011;18310;55.586;12.286;2023-02-01T08:14:32;6.57;;;1.20;;
31730;SDS011;18310;55.586;12.286;2023-02-01T08:17:37;8.27;;;1.47;;
31730;SDS011;18310;55.586;12.286;2023-02-01T08:20:41;8.07;;;1.67;;
31730;SDS011;18310;55.586;12.286;2023-02-01T08:23:46;6.82;;;1.27;;
31730;SDS011;18310;55.586;12.286;2023-02-01T08:26:50;13.20;;;1.48;;
31730;SDS011;18310;55.586;12.286;2023-02-01T08:29:55;8.93;;;1.25;;
31730;SDS011;18310;55.586;12.286;2023-02-01T08:32:59;4.15;;;1.05;;
31730;SDS011;18310;55.586;12.286;2023-02-01T08:36:03;6.32;;;1.20;;
31730;SDS011;18310;55.586;12.286;2023-02-01T08:39:09;9.48;;;1.23;;
31730;SDS011;18310;55.586;12.286;2023-02-01T08:42:13;7.20;;;1.70;;
31730;SDS011;18310;55.586;12.286;2023-02-01T08:45:35;7.70;;;1.33;;
31730;SDS011;18310;55.586;12.286;2023-02-01T08:48:41;12.30;;;1.50;;
31730;SDS011;18310;55.586;12.286;2023-02-01T08:51:44;10.95;;;2.00;;
31730;SDS011;18310;55.586;12.286;2023-02-01T08:54:48;8.40;;;1.27;;
31730;SDS011;18310;55.586;12.286;2023-02-01T08:57:51;9.27;;;2.00;;
31730;SDS011;18310;55.586;12.286;2023-02-01T09:01:01;11.00;;;1.60;;
31730;SDS011;18310;55.586;12.286;2023-02-01T09:04:10;6.88;;;1.25;;
31730;SDS011;18310;55.586;12.286;2023-02-01T09:07:13;8.13;;;1.90;;
31730;SDS011;18310;55.586;12.286;2023-02-01T09:10:17;6.05;;;1.70;;
31730;SDS011;18310;55.586;12.286;2023-02-01T09:13:35;4.95;;;1.50;;
31730;SDS011;18310;55.586;12.286;2023-02-01T09:16:38;10.57;;;1.95;;
31730;SDS011;18310;55.586;12.286;2023-02-01T09:19:43;7.13;;;1.52;;
31730;SDS011;18310;55.586;12.286;2023-02-01T09:22:46;11.93;;;1.50;;
31730;SDS011;18310;55.586;12.286;2023-02-01T09:25:50;7.18;;;1.45;;
31730;SDS011;18310;55.586;12.286;2023-02-01T09:28:53;9.33;;;1.40;;
31730;SDS011;18310;55.586;12.286;2023-02-01T09:31:57;8.63;;;1.45;;
31730;SDS011;18310;55.586;12.286;2023-02-01T09:35:06;8.77;;;1.45;;
31730;SDS011;18310;55.586;12.286;2023-02-01T09:38:10;6.53;;;1.35;;
31730;SDS011;18310;55.586;12.286;2023-02-01T09:41:17;11.10;;;1.30;;
31730;SDS011;18310;55.586;12.286;2023-02-01T09:44:39;10.30;;;1.65;;
31730;SDS011;18310;55.586;12.286;2023-02-01T09:47:51;10.32;;;1.85;;
31730;SDS011;18310;55.586;12.286;2023-02-01T09:50:59;8.65;;;1.95;;
31730;SDS011;18310;55.586;12.286;2023-02-01T09:54:09;10.02;;;1.65;;
31730;SDS011;18310;55.586;12.286;2023-02-01T09:57:16;7.60;;;1.25;;
31730;SDS011;18310;55.586;12.286;2023-02-01T10:00:25;12.38;;;1.98;;
31730;SDS011;18310;55.586;12.286;2023-02-01T10:03:33;10.77;;;1.88;;
31730;SDS011;18310;55.586;12.286;2023-02-01T10:06:46;8.63;;;1.48;;
31730;SDS011;18310;55.586;12.286;2023-02-01T10:10:01;11.30;;;1.95;;
31730;SDS011;18310;55.586;12.286;2023-02-01T10:16:43;16.40;;;2.33;;
31730;SDS011;18310;55.586;12.286;2023-02-01T10:20:00;8.20;;;2.20;;
31730;SDS011;18310;55.586;12.286;2023-02-01T10:23:20;10.15;;;2.00;;
31730;SDS011;18310;55.586;12.286;2023-02-01T10:26:53;10.57;;;1.88;;
31730;SDS011;18310;55.586;12.286;2023-02-01T10:30:06;6.40;;;1.40;;
31730;SDS011;18310;55.586;12.286;2023-02-01T10:33:24;10.80;;;1.58;;
31730;SDS011;18310;55.586;12.286;2023-02-01T10:36:33;7.07;;;1.77;;
31730;SDS011;18310;55.586;12.286;2023-02-01T10:39:43;11.50;;;1.98;;
31730;SDS011;18310;55.586;12.286;2023-02-01T10:42:47;11.95;;;2.47;;
31730;SDS011;18310;55.586;12.286;2023-02-01T10:45:53;8.13;;;1.50;;
31730;SDS011;18310;55.586;12.286;2023-02-01T10:48:58;8.40;;;1.23;;
31730;SDS011;18310;55.586;12.286;2023-02-01T10:52:05;8.40;;;1.25;;
31730;SDS011;18310;55.586;12.286;2023-02-01T10:58:43;6.18;;;1.10;;
31730;SDS011;18310;55.586;12.286;2023-02-01T11:01:48;9.75;;;1.63;;
31730;SDS011;18310;55.586;12.286;2023-02-01T11:04:58;7.55;;;1.27;;
31730;SDS011;18310;55.586;12.286;2023-02-01T11:08:03;10.00;;;1.48;;
31730;SDS011;18310;55.586;12.286;2023-02-01T11:11:08;10.45;;;1.92;;
31730;SDS011;18310;55.586;12.286;2023-02-01T11:14:13;12.30;;;1.73;;
31730;SDS011;18310;55.586;12.286;2023-02-01T11:17:23;8.35;;;1.73;;
31730;SDS011;18310;55.586;12.286;2023-02-01T11:20:33;7.97;;;1.48;;
31730;SDS011;18310;55.586;12.286;2023-02-01T11:23:42;10.57;;;1.67;;
31730;SDS011;18310;55.586;12.286;2023-02-01T11:26:49;9.23;;;1.95;;
31730;SDS011;18310;55.586;12.286;2023-02-01T11:29:55;9.02;;;1.73;;
31730;SDS011;18310;55.586;12.286;2023-02-01T11:33:05;7.22;;;1.52;;
31730;SDS011;18310;55.586;12.286;2023-02-01T11:36:15;7.53;;;1.60;;
31730;SDS011;18310;55.586;12.286;2023-02-01T11:39:26;9.90;;;1.80;;
31730;SDS011;18310;55.586;12.286;2023-02-01T11:42:34;6.68;;;1.48;;
31730;SDS011;18310;55.586;12.286;2023-02-01T11:45:37;11.90;;;1.63;;
31730;SDS011;18310;55.586;12.286;2023-02-01T11:48:41;7.75;;;1.60;;
31730;SDS011;18310;55.586;12.286;2023-02-01T11:51:46;10.17;;;1.63;;
31730;SDS011;18310;55.586;12.286;2023-02-01T11:55:05;12.18;;;1.40;;
31730;SDS011;18310;55.586;12.286;2023-02-01T11:58:42;6.40;;;1.30;;
31730;SDS011;18310;55.586;12.286;2023-02-01T12:05:58;16.48;;;1.67;;
31730;SDS011;18310;55.586;12.286;2023-02-01T12:09:14;7.22;;;1.45;;
31730;SDS011;18310;55.586;12.286;2023-02-01T12:12:32;9.38;;;1.58;;
31730;SDS011;18310;55.586;12.286;2023-02-01T12:15:56;7.13;;;1.33;;
31730;SDS011;18310;55.586;12.286;2023-02-01T12:19:16;7.05;;;1.50;;
31730;SDS011;18310;55.586;12.286;2023-02-01T12:22:35;7.68;;;1.88;;
31730;SDS011;18310;55.586;12.286;2023-02-01T12:25:54;8.13;;;1.65;;
31730;SDS011;18310;55.586;12.286;2023-02-01T12:29:11;8.45;;;2.10;;
31730;SDS011;18310;55.586;12.286;2023-02-01T12:32:31;11.57;;;1.90;;
31730;SDS011;18310;55.586;12.286;2023-02-01T12:35:54;14.75;;;1.80;;
31730;SDS011;18310;55.586;12.286;2023-02-01T12:39:13;11.60;;;1.77;;
31730;SDS011;18310;55.586;12.286;2023-02-01T12:42:26;10.63;;;1.95;;
31730;SDS011;18310;55.586;12.286;2023-02-01T12:45:36;10.13;;;2.30;;
31730;SDS011;18310;55.586;12.286;2023-02-01T12:48:49;11.77;;;1.98;;
31730;SDS011;18310;55.586;12.286;2023-02-01T12:52:00;6.85;;;1.63;;
31730;SDS011;18310;55.586;12.286;2023-02-01T12:55:13;7.80;;;1.90;;
31730;SDS011;18310;55.586;12.286;2023-02-01T12:58:26;12.93;;;2.20;;
31730;SDS011;18310;55.586;12.286;2023-02-01T13:01:37;10.32;;;1.70;;
31730;SDS011;18310;55.586;12.286;2023-02-01T13:04:52;9.90;;;1.58;;
31730;SDS011;18310;55.586;12.286;2023-02-01T13:08:04;12.27;;;2.10;;
31730;SDS011;18310;55.586;12.286;2023-02-01T13:11:13;13.07;;;2.00;;
31730;SDS011;18310;55.586;12.286;2023-02-01T13:14:25;9.48;;;2.25;;
31730;SDS011;18310;55.586;12.286;2023-02-01T13:17:36;14.07;;;2.45;;
31730;SDS011;18310;55.586;12.286;2023-02-01T13:20:45;13.00;;;2.42;;
31730;SDS011;18310;55.586;12.286;2023-02-01T13:23:55;10.65;;;2.28;;
31730;SDS011;18310;55.586;12.286;2023-02-01T13:27:00;10.27;;;2.55;;
31730;SDS011;18310;55.586;12.286;2023-02-01T13:30:04;13.13;;;2.38;;
31730;SDS011;18310;55.586;12.286;2023-02-01T13:33:17;12.02;;;2.30;;
31730;SDS011;18310;55.586;12.286;2023-02-01T13:37:01;12.85;;;2.20;;
31730;SDS011;18310;55.586;12.286;2023-02-01T13:40:30;16.02;;;2.15;;
31730;SDS011;18310;55.586;12.286;2023-02-01T13:43:43;15.95;;;2.60;;
31730;SDS011;18310;55.586;12.286;2023-02-01T13:46:51;9.60;;;1.80;;
31730;SDS011;18310;55.586;12.286;2023-02-01T13:50:01;11.25;;;2.28;;
31730;SDS011;18310;55.586;12.286;2023-02-01T13:53:18;14.70;;;2.78;;
31730;SDS011;18310;55.586;12.286;2023-02-01T13:56:32;18.20;;;2.78;;
31730;SDS011;18310;55.586;12.286;2023-02-01T13:59:49;14.18;;;2.67;;
31730;SDS011;18310;55.586;12.286;2023-02-01T14:03:07;11.23;;;2.72;;
31730;SDS011;18310;55.586;12.286;2023-02-01T14:06:18;12.52;;;2.78;;
31730;SDS011;18310;55.586;12.286;2023-02-01T14:09:47;14.80;;;3.20;;
31730;SDS011;18310;55.586;12.286;2023-02-01T14:12:50;17.50;;;3.00;;
31730;SDS011;18310;55.586;12.286;2023-02-01T14:16:11;14.07;;;2.95;;
31730;SDS011;18310;55.586;12.286;2023-02-01T14:19:19;15.77;;;2.90;;
31730;SDS011;18310;55.586;12.286;2023-02-01T14:22:31;12.93;;;2.83;;
31730;SDS011;18310;55.586;12.286;2023-02-01T14:25:38;14.23;;;2.60;;
31730;SDS011;18310;55.586;12.286;2023-02-01T14:28:44;21.38;;;3.10;;
31730;SDS011;18310;55.586;12.286;2023-02-01T14:32:04;17.52;;;2.75;;
31730;SDS011;18310;55.586;12.286;2023-02-01T14:35:17;17.75;;;2.70;;
31730;SDS011;18310;55.586;12.286;2023-02-01T14:38:23;15.23;;;2.47;;
31730;SDS011;18310;55.586;12.286;2023-02-01T14:41:32;14.98;;;2.42;;
31730;SDS011;18310;55.586;12.286;2023-02-01T14:44:37;13.45;;;2.63;;
31730;SDS011;18310;55.586;12.286;2023-02-01T14:51:36;13.10;;;2.55;;
31730;SDS011;18310;55.586;12.286;2023-02-01T14:57:46;17.00;;;3.08;;
31730;SDS011;18310;55.586;12.286;2023-02-01T15:00:55;15.95;;;2.95;;
31730;SDS011;18310;55.586;12.286;2023-02-01T15:04:03;16.73;;;2.47;;
31730;SDS011;18310;55.586;12.286;2023-02-01T15:07:11;14.52;;;3.13;;
31730;SDS011;18310;55.586;12.286;2023-02-01T15:10:18;12.95;;;2.70;;
31730;SDS011;18310;55.586;12.286;2023-02-01T15:13:25;11.68;;;2.60;;
31730;SDS011;18310;55.586;12.286;2023-02-01T15:16:30;16.00;;;3.05;;
31730;SDS011;18310;55.586;12.286;2023-02-01T15:19:33;10.73;;;2.47;;
31730;SDS011;18310;55.586;12.286;2023-02-01T15:22:37;21.57;;;3.10;;
31730;SDS011;18310;55.586;12.286;2023-02-01T15:25:40;20.08;;;3.35;;
31730;SDS011;18310;55.586;12.286;2023-02-01T15:28:50;14.68;;;3.47;;
31730;SDS011;18310;55.586;12.286;2023-02-01T15:31:53;16.77;;;3.42;;
31730;SDS011;18310;55.586;12.286;2023-02-01T15:34:56;14.27;;;3.67;;
31730;SDS011;18310;55.586;12.286;2023-02-01T15:41:33;15.30;;;3.35;;
31730;SDS011;18310;55.586;12.286;2023-02-01T15:44:39;13.40;;;3.17;;
31730;SDS011;18310;55.586;12.286;2023-02-01T15:47:47;26.42;;;3.47;;
31730;SDS011;18310;55.586;12.286;2023-02-01T15:50:52;28.73;;;4.65;;
31730;SDS011;18310;55.586;12.286;2023-02-01T15:53:58;23.48;;;3.50;;
31730;SDS011;18310;55.586;12.286;2023-02-01T15:57:04;19.75;;;4.07;;
31730;SDS011;18310;55.586;12.286;2023-02-01T16:00:18;17.77;;;3.37;;
31730;SDS011;18310;55.586;12.286;2023-02-01T16:03:33;19.85;;;3.90;;
31730;SDS011;18310;55.586;12.286;2023-02-01T16:06:44;14.45;;;3.40;;
31730;SDS011;18310;55.586;12.286;2023-02-01T16:09:52;23.20;;;4.13;;
31730;SDS011;18310;55.586;12.286;2023-02-01T16:12:58;16.58;;;4.30;;
31730;SDS011;18310;55.586;12.286;2023-02-01T16:16:03;25.00;;;4.70;;
31730;SDS011;18310;55.586;12.286;2023-02-01T16:19:10;23.52;;;4.30;;
31730;SDS011;18310;55.586;12.286;2023-02-01T16:22:16;27.35;;;4.18;;
31730;SDS011;18310;55.586;12.286;2023-02-01T16:25:20;19.02;;;4.65;;
31730;SDS011;18310;55.586;12.286;2023-02-01T16:28:23;20.25;;;4.78;;
31730;SDS011;18310;55.586;12.286;2023-02-01T16:31:29;35.17;;;5.17;;
31730;SDS011;18310;55.586;12.286;2023-02-01T16:34:34;25.40;;;5.50;;
31730;SDS011;18310;55.586;12.286;2023-02-01T16:37:37;21.20;;;4.53;;
31730;SDS011;18310;55.586;12.286;2023-02-01T16:40:41;23.23;;;4.68;;
31730;SDS011;18310;55.586;12.286;2023-02-01T16:43:46;28.73;;;4.97;;
31730;SDS011;18310;55.586;12.286;2023-02-01T16:46:54;31.85;;;5.78;;
31730;SDS011;18310;55.586;12.286;2023-02-01T16:49:57;31.20;;;5.53;;
31730;SDS011;18310;55.586;12.286;2023-02-01T16:53:14;38.33;;;5.95;;
31730;SDS011;18310;55.586;12.286;2023-02-01T16:56:20;32.85;;;5.25;;
31730;SDS011;18310;55.586;12.286;2023-02-01T16:59:26;35.90;;;5.68;;
31730;SDS011;18310;55.586;12.286;2023-02-01T17:05:34;26.67;;;5.18;;
31730;SDS011;18310;55.586;12.286;2023-02-01T17:08:39;31.10;;;5.60;;
31730;SDS011;18310;55.586;12.286;2023-02-01T17:11:45;29.52;;;4.75;;
31730;SDS011;18310;55.586;12.286;2023-02-01T17:14:48;26.20;;;6.30;;
31730;SDS011;18310;55.586;12.286;2023-02-01T17:17:54;27.23;;;5.10;;
31730;SDS011;18310;55.586;12.286;2023-02-01T17:20:59;21.85;;;4.88;;
31730;SDS011;18310;55.586;12.286;2023-02-01T17:24:04;29.55;;;5.30;;
31730;SDS011;18310;55.586;12.286;2023-02-01T17:27:08;26.73;;;4.38;;
31730;SDS011;18310;55.586;12.286;2023-02-01T17:30:13;27.73;;;4.95;;
31730;SDS011;18310;55.586;12.286;2023-02-01T17:33:20;30.45;;;4.90;;
31730;SDS011;18310;55.586;12.286;2023-02-01T17:36:35;29.10;;;5.20;;
31730;SDS011;18310;55.586;12.286;2023-02-01T17:39:40;23.98;;;5.30;;
31730;SDS011;18310;55.586;12.286;2023-02-01T17:42:55;21.85;;;4.55;;
31730;SDS011;18310;55.586;12.286;2023-02-01T17:45:59;30.73;;;5.57;;
31730;SDS011;18310;55.586;12.286;2023-02-01T17:49:08;23.85;;;5.43;;
31730;SDS011;18310;55.586;12.286;2023-02-01T17:52:13;22.83;;;4.47;;
31730;SDS011;18310;55.586;12.286;2023-02-01T17:55:20;28.27;;;4.82;;
31730;SDS011;18310;55.586;12.286;2023-02-01T17:58:27;18.92;;;4.55;;
31730;SDS011;18310;55.586;12.286;2023-02-01T18:01:33;19.98;;;4.50;;
31730;SDS011;18310;55.586;12.286;2023-02-01T18:07:41;31.98;;;4.50;;
31730;SDS011;18310;55.586;12.286;2023-02-01T18:10:45;21.37;;;4.73;;
31730;SDS011;18310;55.586;12.286;2023-02-01T18:13:51;33.17;;;4.93;;
31730;SDS011;18310;55.586;12.286;2023-02-01T18:16:55;21.10;;;4.70;;
31730;SDS011;18310;55.586;12.286;2023-02-01T18:19:59;29.63;;;4.57;;
31730;SDS011;18310;55.586;12.286;2023-02-01T18:23:03;20.23;;;3.63;;
31730;SDS011;18310;55.586;12.286;2023-02-01T18:26:07;24.55;;;4.25;;
31730;SDS011;18310;55.586;12.286;2023-02-01T18:29:13;22.65;;;4.15;;
31730;SDS011;18310;55.586;12.286;2023-02-01T18:32:16;21.20;;;4.90;;
31730;SDS011;18310;55.586;12.286;2023-02-01T18:35:22;24.00;;;4.75;;
31730;SDS011;18310;55.586;12.286;2023-02-01T18:38:27;23.67;;;4.97;;
31730;SDS011;18310;55.586;12.286;2023-02-01T18:41:30;34.10;;;5.13;;
31730;SDS011;18310;55.586;12.286;2023-02-01T18:44:36;20.05;;;3.85;;
31730;SDS011;18310;55.586;12.286;2023-02-01T18:47:40;26.35;;;4.57;;
31730;SDS011;18310;55.586;12.286;2023-02-01T18:50:45;21.42;;;4.38;;
31730;SDS011;18310;55.586;12.286;2023-02-01T18:53:52;22.20;;;4.82;;
31730;SDS011;18310;55.586;12.286;2023-02-01T18:56:55;28.65;;;5.20;;
31730;SDS011;18310;55.586;12.286;2023-02-01T18:59:59;22.50;;;5.00;;
31730;SDS011;18310;55.586;12.286;2023-02-01T19:03:06;25.63;;;3.95;;
31730;SDS011;18310;55.586;12.286;2023-02-01T19:06:15;22.13;;;4.80;;
31730;SDS011;18310;55.586;12.286;2023-02-01T19:09:20;20.92;;;4.38;;
31730;SDS011;18310;55.586;12.286;2023-02-01T19:12:23;17.75;;;4.40;;
31730;SDS011;18310;55.586;12.286;2023-02-01T19:15:26;24.00;;;4.40;;
31730;SDS011;18310;55.586;12.286;2023-02-01T19:18:30;18.90;;;4.53;;
31730;SDS011;18310;55.586;12.286;2023-02-01T19:21:35;22.95;;;4.22;;